createdAt,value
2018-04-18T00:01:01.671Z,0
2018-04-18T00:02:02.086Z,0
2018-04-18T00:03:02.718Z,0
2018-04-18T00:04:02.824Z,0
2018-04-18T00:05:02.281Z,0
2018-04-18T00:06:02.763Z,0
2018-04-18T00:07:02.759Z,0
2018-04-18T00:08:03.007Z,0
2018-04-18T00:09:02.943Z,0
2018-04-18T00:10:03.377Z,0
2018-04-18T00:11:03.712Z,0
2018-04-18T00:12:03.428Z,0
2018-04-18T00:13:03.206Z,0
2018-04-18T00:14:03.444Z,0
2018-04-18T00:15:03.283Z,0
2018-04-18T00:16:03.149Z,0
2018-04-18T00:17:02.624Z,0
2018-04-18T00:18:03.306Z,0
2018-04-18T00:19:03.650Z,0
2018-04-18T00:20:04.070Z,0
2018-04-18T00:21:03.888Z,0
2018-04-18T00:22:03.616Z,0
2018-04-18T00:23:35.025Z,0
2018-04-18T00:24:15.608Z,0
2018-04-18T00:25:15.755Z,0
2018-04-18T00:26:16.426Z,0
2018-04-18T00:27:16.440Z,0
2018-04-18T00:28:16.473Z,0
2018-04-18T00:29:16.231Z,0
2018-04-18T00:30:16.863Z,0
2018-04-18T00:31:16.928Z,0
2018-04-18T00:32:17.388Z,0
2018-04-18T00:33:17.364Z,0
2018-04-18T00:34:17.398Z,0
2018-04-18T00:35:16.886Z,0
2018-04-18T00:36:17.531Z,0
2018-04-18T00:37:17.719Z,0
2018-04-18T00:38:17.638Z,0
2018-04-18T00:39:17.616Z,0
2018-04-18T00:40:17.647Z,0
2018-04-18T00:41:17.419Z,0
2018-04-18T00:42:17.831Z,0
2018-04-18T00:43:18.228Z,0
2018-04-18T00:44:18.846Z,0
2018-04-18T00:45:19.216Z,0
2018-04-18T00:46:18.982Z,0
2018-04-18T00:47:19.062Z,0
2018-04-18T00:48:19.443Z,0
2018-04-18T00:49:19.494Z,0
2018-04-18T00:50:19.523Z,0
2018-04-18T00:51:19.303Z,0
2018-04-18T00:52:19.707Z,0
2018-04-18T00:53:20.358Z,0
2018-04-18T00:54:20.395Z,0
2018-04-18T00:55:20.508Z,0
2018-04-18T00:56:20.603Z,0
2018-04-18T00:57:21.009Z,0
2018-04-18T00:58:20.768Z,0
2018-04-18T00:59:21.422Z,0
2018-04-18T01:00:24.784Z,0
2018-04-18T01:01:24.539Z,0
2018-04-18T01:02:25.205Z,0
2018-04-18T01:03:24.698Z,0
2018-04-18T01:04:25.254Z,0
2018-04-18T01:05:25.285Z,0
2018-04-18T01:06:25.040Z,0
2018-04-18T01:07:25.109Z,0
2018-04-18T01:08:25.763Z,0
2018-04-18T01:09:25.791Z,0
2018-04-18T01:10:25.813Z,0
2018-04-18T01:11:25.850Z,0
2018-04-18T01:12:25.867Z,0
2018-04-18T01:13:26.236Z,0
2018-04-18T01:14:26.022Z,0
2018-04-18T01:15:26.687Z,0
2018-04-18T01:16:26.444Z,0
2018-04-18T01:17:27.094Z,0
2018-04-18T01:18:27.125Z,0
2018-04-18T01:19:27.148Z,0
2018-04-18T01:20:27.550Z,0
2018-04-18T01:21:27.328Z,0
2018-04-18T01:22:27.741Z,0
2018-04-18T01:23:28.101Z,0
2018-04-18T01:24:28.143Z,0
2018-04-18T01:25:28.165Z,0
2018-04-18T01:26:27.944Z,0
2018-04-18T01:27:28.395Z,0
2018-04-18T01:28:28.792Z,0
2018-04-18T01:29:28.941Z,0
2018-04-18T01:30:29.106Z,0
2018-04-18T01:31:29.764Z,0
2018-04-18T01:32:29.313Z,0
2018-04-18T01:33:29.972Z,0
2018-04-18T01:34:29.465Z,0
2018-04-18T01:35:30.134Z,0
2018-04-18T01:36:30.473Z,0
2018-04-18T01:37:30.508Z,0
2018-04-18T01:38:30.632Z,0
2018-04-18T01:39:31.279Z,0
2018-04-18T01:40:31.300Z,0
2018-04-18T01:41:31.423Z,0
2018-04-18T01:42:31.042Z,0
2018-04-18T01:43:32.118Z,0
2018-04-18T01:44:32.143Z,0
2018-04-18T01:45:32.545Z,0
2018-04-18T01:46:32.566Z,0
2018-04-18T01:47:32.592Z,0
2018-04-18T01:48:32.626Z,0
2018-04-18T01:49:32.666Z,0
2018-04-18T01:50:32.689Z,0
2018-04-18T01:51:32.432Z,0
2018-04-18T01:52:32.862Z,0
2018-04-18T01:53:33.295Z,0
2018-04-18T01:54:33.281Z,0
2018-04-18T01:55:33.325Z,0
2018-04-18T01:56:33.349Z,0
2018-04-18T01:57:33.445Z,0
2018-04-18T01:58:33.819Z,0
2018-04-18T01:59:33.562Z,0
2018-04-18T02:00:42.183Z,0
2018-04-18T02:01:42.382Z,0
2018-04-18T02:02:42.240Z,0
2018-04-18T02:03:42.249Z,0
2018-04-18T02:04:42.337Z,0
2018-04-18T02:05:42.273Z,0
2018-04-18T02:06:42.162Z,0
2018-04-18T02:07:42.402Z,0
2018-04-18T02:08:48.154Z,0
2018-04-18T02:09:48.173Z,0
2018-04-18T02:10:48.307Z,0
2018-04-18T02:11:48.481Z,0
2018-04-18T02:12:48.370Z,0
2018-04-18T02:13:48.409Z,0
2018-04-18T02:14:48.169Z,0
2018-04-18T02:15:48.548Z,0
2018-04-18T02:16:48.053Z,0
2018-04-18T02:17:48.432Z,0
2018-04-18T02:18:48.794Z,0
2018-04-18T02:19:49.176Z,0
2018-04-18T02:20:49.575Z,0
2018-04-18T02:21:49.594Z,0
2018-04-18T02:22:49.642Z,0
2018-04-18T02:23:49.747Z,0
2018-04-18T02:24:49.855Z,0
2018-04-18T02:25:49.709Z,0
2018-04-18T02:26:50.281Z,0
2018-04-18T02:27:50.665Z,0
2018-04-18T02:28:51.025Z,0
2018-04-18T02:29:51.048Z,0
2018-04-18T02:30:51.085Z,0
2018-04-18T02:31:50.831Z,0
2018-04-18T02:32:50.989Z,0
2018-04-18T02:33:51.374Z,0
2018-04-18T02:34:51.386Z,0
2018-04-18T02:35:51.401Z,0
2018-04-18T02:36:51.827Z,0
2018-04-18T02:37:52.226Z,0
2018-04-18T02:38:52.255Z,0
2018-04-18T02:39:52.340Z,0
2018-04-18T02:40:52.103Z,0
2018-04-18T02:41:52.486Z,0
2018-04-18T02:42:52.880Z,0
2018-04-18T02:43:53.231Z,0
2018-04-18T02:44:53.279Z,0
2018-04-18T02:45:53.038Z,0
2018-04-18T02:46:53.443Z,0
2018-04-18T02:47:53.849Z,0
2018-04-18T02:48:54.257Z,0
2018-04-18T02:49:54.339Z,0
2018-04-18T02:50:54.333Z,0
2018-04-18T02:51:54.081Z,0
2018-04-18T02:52:54.239Z,0
2018-04-18T02:53:54.498Z,0
2018-04-18T02:54:54.396Z,0
2018-04-18T02:55:55.189Z,0
2018-04-18T02:56:54.974Z,0
2018-04-18T02:57:55.671Z,0
2018-04-18T02:58:56.031Z,0
2018-04-18T02:59:56.064Z,0
2018-04-18T03:00:57.630Z,0
2018-04-18T03:01:57.128Z,0
2018-04-18T03:02:56.198Z,0
2018-04-18T03:03:56.213Z,0
2018-04-18T03:04:56.269Z,0
2018-04-18T03:05:56.293Z,0
2018-04-18T03:06:56.317Z,0
2018-04-18T03:07:56.083Z,0
2018-04-18T03:08:56.536Z,0
2018-04-18T03:09:56.559Z,0
2018-04-18T03:10:56.315Z,0
2018-04-18T03:11:56.620Z,0
2018-04-18T03:12:56.627Z,0
2018-04-18T03:13:57.105Z,0
2018-04-18T03:14:56.925Z,0
2018-04-18T03:15:57.416Z,0
2018-04-18T03:16:56.840Z,0
2018-04-18T03:17:57.043Z,0
2018-04-18T03:18:57.344Z,0
2018-04-18T03:19:58.117Z,0
2018-04-18T03:20:57.431Z,0
2018-04-18T03:21:57.494Z,0
2018-04-18T03:22:56.685Z,0
2018-04-18T03:23:57.514Z,0
2018-04-18T03:24:57.894Z,0
2018-04-18T03:25:57.290Z,0
2018-04-18T03:26:57.641Z,0
2018-04-18T03:27:57.437Z,0
2018-04-18T03:28:57.372Z,0
2018-04-18T03:29:57.803Z,0
2018-04-18T03:30:57.806Z,0
2018-04-18T03:31:58.497Z,0
2018-04-18T03:32:57.980Z,0
2018-04-18T03:33:58.267Z,4
2018-04-18T03:34:58.885Z,4
2018-04-18T03:35:59.426Z,0
2018-04-18T03:36:59.195Z,0
2018-04-18T03:37:58.996Z,4
2018-04-18T03:38:58.804Z,0
2018-04-18T03:39:58.882Z,4
2018-04-18T03:40:59.584Z,4
2018-04-18T03:42:00.128Z,4
2018-04-18T03:42:59.853Z,8
2018-04-18T03:43:59.798Z,8
2018-04-18T03:44:59.865Z,8
2018-04-18T03:45:59.972Z,12
2018-04-18T03:46:59.552Z,8
2018-04-18T03:48:00.342Z,12
2018-04-18T03:49:00.052Z,12
2018-04-18T03:50:00.079Z,16
2018-04-18T03:50:59.662Z,16
2018-04-18T03:52:00.033Z,20
2018-04-18T03:53:00.146Z,20
2018-04-18T03:54:00.022Z,24
2018-04-18T03:54:59.869Z,28
2018-04-18T03:56:00.090Z,32
2018-04-18T03:57:00.076Z,36
2018-04-18T03:57:59.899Z,40
2018-04-18T03:59:00.017Z,44
2018-04-18T04:00:00.407Z,52
2018-04-18T04:00:59.952Z,60
2018-04-18T04:02:00.447Z,64
2018-04-18T04:03:00.642Z,72
2018-04-18T04:04:00.444Z,76
2018-04-18T04:04:59.967Z,84
2018-04-18T04:06:00.341Z,92
2018-04-18T04:07:00.351Z,96
2018-04-18T04:08:00.415Z,104
2018-04-18T04:09:00.875Z,108
2018-04-18T04:10:00.751Z,120
2018-04-18T04:11:00.263Z,132
2018-04-18T04:12:01.795Z,144
2018-04-18T04:13:00.667Z,156
2018-04-18T04:14:00.443Z,168
2018-04-18T04:15:01.372Z,176
2018-04-18T04:16:01.476Z,188
2018-04-18T04:17:01.279Z,200
2018-04-18T04:18:01.403Z,212
2018-04-18T04:19:01.533Z,228
2018-04-18T04:20:01.569Z,244
2018-04-18T04:21:01.251Z,256
2018-04-18T04:22:01.690Z,276
2018-04-18T04:23:01.655Z,292
2018-04-18T04:24:01.820Z,308
2018-04-18T04:25:01.727Z,328
2018-04-18T04:26:01.794Z,344
2018-04-18T04:27:01.520Z,368
2018-04-18T04:28:02.309Z,388
2018-04-18T04:29:01.898Z,412
2018-04-18T04:30:02.659Z,432
2018-04-18T04:31:01.967Z,452
2018-04-18T04:32:01.966Z,468
2018-04-18T04:33:02.022Z,480
2018-04-18T04:34:01.799Z,500
2018-04-18T04:35:01.656Z,524
2018-04-18T04:36:02.223Z,552
2018-04-18T04:37:02.749Z,572
2018-04-18T04:38:02.280Z,584
2018-04-18T04:39:02.833Z,596
2018-04-18T04:40:02.334Z,616
2018-04-18T04:41:02.343Z,632
2018-04-18T04:42:02.574Z,640
2018-04-18T04:43:03.042Z,640
2018-04-18T04:44:03.946Z,656
2018-04-18T04:45:04.715Z,672
2018-04-18T04:46:03.581Z,676
2018-04-18T04:47:04.135Z,676
2018-04-18T04:48:03.733Z,692
2018-04-18T04:49:03.305Z,712
2018-04-18T04:50:03.504Z,736
2018-04-18T04:51:03.963Z,784
2018-04-18T04:52:02.712Z,864
2018-04-18T04:53:03.107Z,980
2018-04-18T04:54:03.226Z,1088
2018-04-18T04:55:03.373Z,1144
2018-04-18T04:56:02.991Z,1176
2018-04-18T04:57:03.584Z,1204
2018-04-18T04:58:02.903Z,1232
2018-04-18T04:59:03.738Z,1248
2018-04-18T05:00:17.091Z,1256
2018-04-18T05:01:04.180Z,1260
2018-04-18T05:02:04.060Z,1264
2018-04-18T05:03:03.110Z,1276
2018-04-18T05:04:03.770Z,1288
2018-04-18T05:05:03.682Z,1300
2018-04-18T05:06:04.458Z,1296
2018-04-18T05:07:04.068Z,1260
2018-04-18T05:08:04.764Z,1292
2018-04-18T05:09:05.073Z,1360
2018-04-18T05:10:04.176Z,1412
2018-04-18T05:11:05.053Z,1476
2018-04-18T05:12:04.345Z,1520
2018-04-18T05:13:04.765Z,1548
2018-04-18T05:14:05.120Z,1548
2018-04-18T05:15:04.884Z,1564
2018-04-18T05:16:05.063Z,1660
2018-04-18T05:17:04.724Z,1736
2018-04-18T05:18:04.791Z,1816
2018-04-18T05:19:05.501Z,1912
2018-04-18T05:20:05.357Z,1936
2018-04-18T05:21:05.402Z,2024
2018-04-18T05:22:05.261Z,2276
2018-04-18T05:23:05.441Z,2864
2018-04-18T05:24:05.384Z,3104
2018-04-18T05:25:05.798Z,3180
2018-04-18T05:26:04.998Z,3028
2018-04-18T05:27:05.805Z,2592
2018-04-18T05:28:05.506Z,2528
2018-04-18T05:29:05.928Z,2948
2018-04-18T05:30:05.271Z,3568
2018-04-18T05:31:06.215Z,4076
2018-04-18T05:32:05.480Z,4232
2018-04-18T05:33:05.729Z,4464
2018-04-18T05:34:05.990Z,4672
2018-04-18T05:35:06.432Z,4656
2018-04-18T05:36:06.097Z,4660
2018-04-18T05:37:05.895Z,4792
2018-04-18T05:38:06.317Z,4980
2018-04-18T05:39:05.940Z,4852
2018-04-18T05:40:06.369Z,3668
2018-04-18T05:41:07.171Z,3260
2018-04-18T05:42:06.930Z,4868
2018-04-18T05:43:06.824Z,4656
2018-04-18T05:44:05.877Z,4884
2018-04-18T05:45:07.897Z,5100
2018-04-18T05:46:07.814Z,5412
2018-04-18T05:47:07.263Z,5452
2018-04-18T05:48:07.079Z,5280
2018-04-18T05:49:07.345Z,5268
2018-04-18T05:50:06.996Z,5432
2018-04-18T05:51:06.471Z,5552
2018-04-18T05:52:06.713Z,5824
2018-04-18T05:53:07.371Z,6100
2018-04-18T05:54:07.758Z,6144
2018-04-18T05:55:07.886Z,6116
2018-04-18T05:56:07.735Z,6188
2018-04-18T05:57:07.564Z,6392
2018-04-18T05:58:07.678Z,6768
2018-04-18T05:59:07.807Z,6984
2018-04-18T06:00:20.953Z,7132
2018-04-18T06:01:08.074Z,7240
2018-04-18T06:02:08.246Z,7300
2018-04-18T06:03:08.622Z,7364
2018-04-18T06:04:08.716Z,7440
2018-04-18T06:05:08.910Z,7484
2018-04-18T06:06:09.332Z,7636
2018-04-18T06:07:08.928Z,7740
2018-04-18T06:08:09.469Z,7712
2018-04-18T06:09:09.887Z,7324
2018-04-18T06:10:10.280Z,7040
2018-04-18T06:11:10.464Z,6748
2018-04-18T06:12:10.490Z,6660
2018-04-18T06:13:10.895Z,6668
2018-04-18T06:14:10.945Z,6716
2018-04-18T06:15:11.489Z,6736
2018-04-18T06:16:11.177Z,6744
2018-04-18T06:17:11.203Z,6740
2018-04-18T06:18:11.609Z,6740
2018-04-18T06:19:12.078Z,6700
2018-04-18T06:20:12.097Z,6664
2018-04-18T06:21:12.192Z,6636
2018-04-18T06:22:12.090Z,6616
2018-04-18T06:23:11.997Z,6584
2018-04-18T06:24:12.431Z,6552
2018-04-18T06:25:12.313Z,6548
2018-04-18T06:26:12.750Z,6520
2018-04-18T06:27:12.925Z,6472
2018-04-18T06:28:13.175Z,6488
2018-04-18T06:29:13.079Z,6504
2018-04-18T06:30:13.749Z,6512
2018-04-18T06:31:13.241Z,6472
2018-04-18T06:32:13.899Z,6492
2018-04-18T06:33:14.017Z,6488
2018-04-18T06:34:13.769Z,6480
2018-04-18T06:35:14.921Z,6504
2018-04-18T06:36:15.162Z,6564
2018-04-18T06:37:14.865Z,6220
2018-04-18T06:38:15.263Z,6508
2018-04-18T06:39:15.668Z,6488
2018-04-18T06:40:16.093Z,6460
2018-04-18T06:41:16.458Z,6408
2018-04-18T06:42:16.556Z,6396
2018-04-18T06:43:17.051Z,6500
2018-04-18T06:44:17.449Z,6488
2018-04-18T06:45:17.068Z,6408
2018-04-18T06:46:17.635Z,6400
2018-04-18T06:47:18.041Z,6420
2018-04-18T06:48:18.171Z,6508
2018-04-18T06:49:18.607Z,6624
2018-04-18T06:50:18.381Z,6572
2018-04-18T06:51:19.310Z,6612
2018-04-18T06:52:19.128Z,6608
2018-04-18T06:53:19.497Z,6456
2018-04-18T06:54:19.614Z,6288
2018-04-18T06:55:19.286Z,6212
2018-04-18T06:56:19.395Z,6192
2018-04-18T06:57:19.558Z,6172
2018-04-18T06:58:19.972Z,6164
2018-04-18T06:59:20.280Z,6156
2018-04-18T07:00:23.471Z,6160
2018-04-18T07:01:24.132Z,6212
2018-04-18T07:02:23.917Z,6252
2018-04-18T07:03:24.363Z,6324
2018-04-18T07:04:24.574Z,6440
2018-04-18T07:05:25.015Z,6496
2018-04-18T07:06:25.023Z,6576
2018-04-18T07:07:24.830Z,6744
2018-04-18T07:08:25.287Z,7128
2018-04-18T07:09:26.187Z,7916
2018-04-18T07:10:25.632Z,9372
2018-04-18T07:11:26.069Z,11228
2018-04-18T07:12:26.088Z,13336
2018-04-18T07:13:26.266Z,15584
2018-04-18T07:14:26.734Z,16768
2018-04-18T07:15:27.278Z,18464
2018-04-18T07:16:27.197Z,19168
2018-04-18T07:17:27.225Z,19616
2018-04-18T07:18:27.675Z,21568
2018-04-18T07:19:27.626Z,24160
2018-04-18T07:20:27.562Z,26112
2018-04-18T07:21:28.479Z,27360
2018-04-18T07:22:28.955Z,28544
2018-04-18T07:23:28.719Z,31904
2018-04-18T07:24:28.006Z,34048
2018-04-18T07:25:28.872Z,33760
2018-04-18T07:26:29.125Z,35552
2018-04-18T07:27:28.338Z,37376
2018-04-18T07:28:28.868Z,37408
2018-04-18T07:29:29.016Z,34848
2018-04-18T07:30:29.775Z,34400
2018-04-18T07:31:29.467Z,37248
2018-04-18T07:32:29.995Z,37504
2018-04-18T07:33:30.130Z,37856
2018-04-18T07:34:30.111Z,35296
2018-04-18T07:35:30.457Z,32096
2018-04-18T07:36:30.769Z,28512
2018-04-18T07:37:30.838Z,22816
2018-04-18T07:38:30.757Z,19072
2018-04-18T07:39:31.072Z,16064
2018-04-18T07:40:31.764Z,13032
2018-04-18T07:41:31.504Z,11872
2018-04-18T07:42:31.950Z,10752
2018-04-18T07:43:32.686Z,10016
2018-04-18T07:44:31.895Z,9248
2018-04-18T07:45:32.502Z,8780
2018-04-18T07:46:32.920Z,8720
2018-04-18T07:47:33.386Z,8596
2018-04-18T07:48:34.043Z,8452
2018-04-18T07:49:33.656Z,8304
2018-04-18T07:50:34.328Z,8120
2018-04-18T07:51:34.129Z,7824
2018-04-18T07:52:34.738Z,7844
2018-04-18T07:53:34.943Z,7692
2018-04-18T07:54:35.474Z,7772
2018-04-18T07:55:35.397Z,7940
2018-04-18T07:56:35.590Z,8024
2018-04-18T07:57:36.153Z,8164
2018-04-18T07:58:36.323Z,8260
2018-04-18T07:59:36.813Z,8416
2018-04-18T08:00:36.541Z,8256
2018-04-18T08:01:36.422Z,8136
2018-04-18T08:02:37.365Z,8012
2018-04-18T08:03:37.317Z,7940
2018-04-18T08:04:37.098Z,7852
2018-04-18T08:05:37.537Z,7804
2018-04-18T08:06:37.713Z,7940
2018-04-18T08:07:38.121Z,8044
2018-04-18T08:08:37.997Z,7980
2018-04-18T08:09:38.222Z,8312
2018-04-18T08:10:38.244Z,10168
2018-04-18T08:11:38.307Z,12688
2018-04-18T08:12:38.090Z,12052
2018-04-18T08:13:38.788Z,10768
2018-04-18T08:14:38.800Z,10524
2018-04-18T08:15:39.037Z,10232
2018-04-18T08:16:39.008Z,10036
2018-04-18T08:17:39.449Z,10068
2018-04-18T08:18:39.424Z,9660
2018-04-18T08:19:39.700Z,9516
2018-04-18T08:20:39.174Z,9652
2018-04-18T08:21:39.313Z,9360
2018-04-18T08:22:39.361Z,9228
2018-04-18T08:23:39.820Z,9152
2018-04-18T08:24:40.217Z,9160
2018-04-18T08:25:40.606Z,9104
2018-04-18T08:26:41.005Z,9136
2018-04-18T08:27:41.689Z,9200
2018-04-18T08:28:41.475Z,9036
2018-04-18T08:29:41.873Z,8780
2018-04-18T08:30:41.755Z,8652
2018-04-18T08:31:42.201Z,8596
2018-04-18T08:32:42.654Z,8868
2018-04-18T08:33:42.799Z,9088
2018-04-18T08:34:43.114Z,9036
2018-04-18T08:35:43.525Z,8984
2018-04-18T08:36:43.156Z,8704
2018-04-18T08:37:43.899Z,8628
2018-04-18T08:38:43.872Z,8752
2018-04-18T08:39:43.792Z,8852
2018-04-18T08:40:44.214Z,8464
2018-04-18T08:41:44.639Z,8100
2018-04-18T08:42:44.694Z,7792
2018-04-18T08:43:44.456Z,7708
2018-04-18T08:44:44.874Z,7672
2018-04-18T08:45:45.559Z,7668
2018-04-18T08:46:45.460Z,7696
2018-04-18T08:47:46.147Z,7696
2018-04-18T08:48:46.332Z,7612
2018-04-18T08:49:46.388Z,7532
2018-04-18T08:50:46.460Z,7528
2018-04-18T08:51:46.583Z,7508
2018-04-18T08:52:47.543Z,7552
2018-04-18T08:53:47.340Z,7556
2018-04-18T08:54:47.284Z,7536
2018-04-18T08:55:46.953Z,7500
2018-04-18T08:56:47.554Z,7312
2018-04-18T08:57:47.541Z,7040
2018-04-18T08:58:47.585Z,6980
2018-04-18T08:59:47.139Z,6956
2018-04-18T09:00:50.244Z,6920
2018-04-18T09:01:49.813Z,6956
2018-04-18T09:02:47.809Z,6976
2018-04-18T09:03:48.226Z,6976
2018-04-18T09:04:47.915Z,6916
2018-04-18T09:05:48.401Z,6864
2018-04-18T09:06:48.164Z,6804
2018-04-18T09:07:48.780Z,6800
2018-04-18T09:08:48.424Z,6900
2018-04-18T09:09:48.727Z,7000
2018-04-18T09:10:48.864Z,7060
2018-04-18T09:11:48.631Z,6868
2018-04-18T09:12:49.312Z,6900
2018-04-18T09:13:49.123Z,6740
2018-04-18T09:14:48.892Z,6680
2018-04-18T09:15:49.279Z,6764
2018-04-18T09:16:49.495Z,6772
2018-04-18T09:17:49.646Z,6856
2018-04-18T09:18:50.067Z,7008
2018-04-18T09:19:50.148Z,7044
2018-04-18T09:20:50.877Z,7264
2018-04-18T09:21:50.872Z,7700
2018-04-18T09:22:50.175Z,7324
2018-04-18T09:23:50.475Z,7316
2018-04-18T09:24:51.191Z,7308
2018-04-18T09:25:51.340Z,7360
2018-04-18T09:26:51.097Z,7484
2018-04-18T09:27:51.479Z,7580
2018-04-18T09:28:51.905Z,7724
2018-04-18T09:29:51.658Z,7992
2018-04-18T09:30:51.951Z,8348
2018-04-18T09:31:52.119Z,8460
2018-04-18T09:32:51.771Z,8456
2018-04-18T09:33:52.216Z,8596
2018-04-18T09:34:52.363Z,8548
2018-04-18T09:35:52.117Z,8456
2018-04-18T09:36:53.085Z,8364
2018-04-18T09:37:52.613Z,8252
2018-04-18T09:38:52.919Z,8156
2018-04-18T09:39:52.953Z,8212
2018-04-18T09:40:53.471Z,8344
2018-04-18T09:41:53.200Z,8072
2018-04-18T09:42:53.824Z,7748
2018-04-18T09:43:54.035Z,7524
2018-04-18T09:44:54.117Z,7424
2018-04-18T09:45:54.068Z,7484
2018-04-18T09:46:55.372Z,7484
2018-04-18T09:47:54.991Z,7540
2018-04-18T09:48:55.077Z,7580
2018-04-18T09:49:54.665Z,7540
2018-04-18T09:50:54.545Z,7768
2018-04-18T09:51:55.010Z,7848
2018-04-18T09:52:55.418Z,7900
2018-04-18T09:53:55.255Z,7944
2018-04-18T09:54:55.551Z,7880
2018-04-18T09:55:55.567Z,7816
2018-04-18T09:56:55.284Z,7664
2018-04-18T09:57:55.627Z,7432
2018-04-18T09:58:56.055Z,7212
2018-04-18T09:59:55.963Z,7164
2018-04-18T10:00:55.794Z,7080
2018-04-18T10:01:56.007Z,6992
2018-04-18T10:02:56.457Z,7004
2018-04-18T10:03:56.340Z,6912
2018-04-18T10:04:56.958Z,6888
2018-04-18T10:05:57.424Z,6796
2018-04-18T10:06:57.473Z,6772
2018-04-18T10:07:57.635Z,6700
2018-04-18T10:08:58.045Z,6676
2018-04-18T10:09:58.104Z,6880
2018-04-18T10:10:58.797Z,7096
2018-04-18T10:11:59.231Z,7256
2018-04-18T10:12:59.635Z,7304
2018-04-18T10:13:59.754Z,7224
2018-04-18T10:15:00.057Z,7304
2018-04-18T10:16:00.105Z,7084
2018-04-18T10:17:00.170Z,7056
2018-04-18T10:18:00.284Z,7052
2018-04-18T10:19:00.242Z,7008
2018-04-18T10:19:59.990Z,7016
2018-04-18T10:21:00.151Z,6916
2018-04-18T10:22:00.237Z,6728
2018-04-18T10:23:00.812Z,6624
2018-04-18T10:24:00.906Z,6624
2018-04-18T10:25:01.160Z,6520
2018-04-18T10:26:01.080Z,6396
2018-04-18T10:27:01.268Z,6284
2018-04-18T10:28:01.596Z,6344
2018-04-18T10:29:01.733Z,6384
2018-04-18T10:30:01.765Z,6428
2018-04-18T10:31:02.179Z,6472
2018-04-18T10:32:02.609Z,6500
2018-04-18T10:33:02.772Z,6432
2018-04-18T10:34:02.592Z,6304
2018-04-18T10:35:02.704Z,6180
2018-04-18T10:36:03.027Z,6264
2018-04-18T10:37:03.706Z,6288
2018-04-18T10:38:03.223Z,6088
2018-04-18T10:39:03.777Z,6012
2018-04-18T10:40:04.282Z,5808
2018-04-18T10:41:04.018Z,5444
2018-04-18T10:42:03.946Z,4596
2018-04-18T10:43:04.647Z,3688
2018-04-18T10:44:04.921Z,3284
2018-04-18T10:45:04.498Z,3108
2018-04-18T10:46:04.908Z,3004
2018-04-18T10:47:06.260Z,2912
2018-04-18T10:48:06.417Z,2840
2018-04-18T10:49:04.763Z,2788
2018-04-18T10:50:05.210Z,2760
2018-04-18T10:51:04.641Z,2728
2018-04-18T10:52:06.589Z,2696
2018-04-18T10:53:06.100Z,2672
2018-04-18T10:54:06.284Z,2632
2018-04-18T10:55:05.277Z,2596
2018-04-18T10:56:05.868Z,2588
2018-04-18T10:57:05.692Z,2568
2018-04-18T10:58:06.365Z,2524
2018-04-18T10:59:05.701Z,2504
2018-04-18T11:00:18.211Z,2500
2018-04-18T11:01:05.637Z,2508
2018-04-18T11:02:05.944Z,2508
2018-04-18T11:03:05.789Z,2492
2018-04-18T11:04:06.142Z,2488
2018-04-18T11:05:05.580Z,2480
2018-04-18T11:06:06.288Z,2468
2018-04-18T11:07:06.290Z,2444
2018-04-18T11:08:06.546Z,2412
2018-04-18T11:09:06.785Z,2404
2018-04-18T11:10:06.860Z,2396
2018-04-18T11:11:07.188Z,2388
2018-04-18T11:12:07.451Z,2380
2018-04-18T11:13:06.962Z,2356
2018-04-18T11:14:07.282Z,2340
2018-04-18T11:15:07.656Z,2328
2018-04-18T11:16:07.639Z,2340
2018-04-18T11:17:08.745Z,2292
2018-04-18T11:18:07.772Z,2252
2018-04-18T11:19:07.798Z,2224
2018-04-18T11:20:07.709Z,2204
2018-04-18T11:21:08.114Z,2196
2018-04-18T11:22:07.594Z,2204
2018-04-18T11:23:07.777Z,2184
2018-04-18T11:24:08.279Z,2164
2018-04-18T11:25:08.206Z,2136
2018-04-18T11:26:10.149Z,2136
2018-04-18T11:27:10.442Z,2140
2018-04-18T11:28:09.206Z,2124
2018-04-18T11:29:09.721Z,2084
2018-04-18T11:30:09.093Z,2052
2018-04-18T11:31:09.368Z,2032
2018-04-18T11:32:09.172Z,2024
2018-04-18T11:33:09.339Z,2020
2018-04-18T11:34:09.378Z,2020
2018-04-18T11:35:09.209Z,1996
2018-04-18T11:36:09.393Z,1976
2018-04-18T11:37:09.280Z,1976
2018-04-18T11:38:09.433Z,1976
2018-04-18T11:39:10.451Z,1972
2018-04-18T11:40:09.902Z,1952
2018-04-18T11:41:09.676Z,1936
2018-04-18T11:42:09.615Z,1908
2018-04-18T11:43:09.884Z,1836
2018-04-18T11:44:09.768Z,1772
2018-04-18T11:45:10.289Z,1748
2018-04-18T11:46:10.276Z,1756
2018-04-18T11:47:11.172Z,1760
2018-04-18T11:48:11.227Z,1752
2018-04-18T11:49:10.873Z,1752
2018-04-18T11:50:11.048Z,1752
2018-04-18T11:51:10.832Z,1756
2018-04-18T11:52:11.201Z,1760
2018-04-18T11:53:11.699Z,1748
2018-04-18T11:54:10.129Z,1736
2018-04-18T11:55:11.052Z,1716
2018-04-18T11:56:11.481Z,1692
2018-04-18T11:57:11.199Z,1680
2018-04-18T11:58:10.540Z,1676
2018-04-18T11:59:10.618Z,1680
2018-04-18T12:00:14.834Z,1668
2018-04-18T12:01:10.435Z,1664
2018-04-18T12:02:10.871Z,1672
2018-04-18T12:03:10.203Z,1680
2018-04-18T12:04:10.958Z,1676
2018-04-18T12:05:10.814Z,1656
2018-04-18T12:06:10.927Z,1632
2018-04-18T12:07:11.141Z,1616
2018-04-18T12:08:10.630Z,1600
2018-04-18T12:09:10.681Z,1588
2018-04-18T12:10:11.116Z,1588
2018-04-18T12:11:11.379Z,1596
2018-04-18T12:12:11.551Z,1608
2018-04-18T12:13:12.021Z,1592
2018-04-18T12:14:11.728Z,1576
2018-04-18T12:15:12.046Z,1564
2018-04-18T12:16:12.037Z,1560
2018-04-18T12:17:11.562Z,1556
2018-04-18T12:18:11.936Z,1572
2018-04-18T12:19:11.842Z,1568
2018-04-18T12:20:12.648Z,1556
2018-04-18T12:21:12.904Z,1552
2018-04-18T12:22:13.127Z,1520
2018-04-18T12:23:13.237Z,1488
2018-04-18T12:24:12.917Z,1468
2018-04-18T12:25:13.596Z,1456
2018-04-18T12:26:13.303Z,1452
2018-04-18T12:27:13.707Z,1444
2018-04-18T12:28:14.049Z,1432
2018-04-18T12:29:14.242Z,1440
2018-04-18T12:30:14.133Z,1444
2018-04-18T12:31:15.052Z,1440
2018-04-18T12:32:15.267Z,1444
2018-04-18T12:33:14.798Z,1444
2018-04-18T12:34:14.971Z,1436
2018-04-18T12:35:14.890Z,1416
2018-04-18T12:36:15.002Z,1408
2018-04-18T12:37:15.317Z,1416
2018-04-18T12:38:15.407Z,1408
2018-04-18T12:39:15.552Z,1400
2018-04-18T12:40:15.695Z,1396
2018-04-18T12:41:15.520Z,1392
2018-04-18T12:42:15.747Z,1384
2018-04-18T12:43:16.168Z,1376
2018-04-18T12:44:16.648Z,1360
2018-04-18T12:45:16.630Z,1356
2018-04-18T12:46:17.313Z,1352
2018-04-18T12:47:17.274Z,1360
2018-04-18T12:48:17.761Z,1352
2018-04-18T12:49:17.610Z,1364
2018-04-18T12:50:18.325Z,1356
2018-04-18T12:51:18.329Z,1340
2018-04-18T12:52:18.772Z,1324
2018-04-18T12:53:18.742Z,1308
2018-04-18T12:54:18.892Z,1284
2018-04-18T12:55:18.865Z,1256
2018-04-18T12:56:18.873Z,1248
2018-04-18T12:57:19.268Z,1252
2018-04-18T12:58:19.396Z,1264
2018-04-18T12:59:19.396Z,1276
2018-04-18T13:00:22.029Z,1280
2018-04-18T13:01:20.659Z,1292
2018-04-18T13:02:20.465Z,1284
2018-04-18T13:03:20.473Z,1272
2018-04-18T13:04:20.483Z,1260
2018-04-18T13:05:20.995Z,1252
2018-04-18T13:06:21.064Z,1240
2018-04-18T13:07:21.174Z,1236
2018-04-18T13:08:21.165Z,1236
2018-04-18T13:09:20.728Z,1236
2018-04-18T13:10:21.469Z,1240
2018-04-18T13:11:21.216Z,1248
2018-04-18T13:12:21.763Z,1248
2018-04-18T13:13:21.368Z,1240
2018-04-18T13:14:22.990Z,1244
2018-04-18T13:15:22.659Z,1248
2018-04-18T13:16:22.493Z,1256
2018-04-18T13:17:22.826Z,1256
2018-04-18T13:18:22.417Z,1252
2018-04-18T13:19:22.361Z,1256
2018-04-18T13:20:22.450Z,1256
2018-04-18T13:21:22.183Z,1260
2018-04-18T13:22:22.343Z,1236
2018-04-18T13:23:23.640Z,1220
2018-04-18T13:24:22.786Z,1216
2018-04-18T13:25:24.818Z,1216
2018-04-18T13:26:23.693Z,1216
2018-04-18T13:27:23.663Z,1212
2018-04-18T13:28:24.421Z,1208
2018-04-18T13:29:23.869Z,1204
2018-04-18T13:30:24.149Z,1196
2018-04-18T13:31:24.583Z,1192
2018-04-18T13:32:25.156Z,1188
2018-04-18T13:33:25.437Z,1180
2018-04-18T13:34:25.883Z,1168
2018-04-18T13:35:25.799Z,1164
2018-04-18T13:36:26.234Z,1160
2018-04-18T13:37:26.679Z,1164
2018-04-18T13:38:27.053Z,1164
2018-04-18T13:39:27.498Z,1156
2018-04-18T13:40:27.037Z,1160
2018-04-18T13:41:27.159Z,1152
2018-04-18T13:42:27.689Z,1148
2018-04-18T13:43:26.875Z,1152
2018-04-18T13:44:27.738Z,1148
2018-04-18T13:45:27.422Z,1148